sensor_id;sensor_type;location;lat;lon;timestamp;P1;durP1;ratioP1;P2;durP2;ratioP2
27977;SDS011;15314;49.248;6.968;2024-01-27T00:00:37;11.70;;;9.40;;
27977;SDS011;15314;49.248;6.968;2024-01-27T00:01:57;10.75;;;9.32;;
27977;SDS011;15314;49.248;6.968;2024-01-27T00:03:16;10.85;;;9.73;;
27977;SDS011;15314;49.248;6.968;2024-01-27T00:04:35;11.52;;;10.20;;
27977;SDS011;15314;49.248;6.968;2024-01-27T00:05:58;11.73;;;9.75;;
27977;SDS011;15314;49.248;6.968;2024-01-27T00:07:17;10.57;;;9.52;;
27977;SDS011;15314;49.248;6.968;2024-01-27T00:08:36;10.63;;;9.63;;
27977;SDS011;15314;49.248;6.968;2024-01-27T00:09:52;11.15;;;10.02;;
27977;SDS011;15314;49.248;6.968;2024-01-27T00:11:12;11.95;;;9.73;;
27977;SDS011;15314;49.248;6.968;2024-01-27T00:12:34;16.17;;;11.15;;
27977;SDS011;15314;49.248;6.968;2024-01-27T00:13:54;12.00;;;10.57;;
27977;SDS011;15314;49.248;6.968;2024-01-27T00:15:13;11.20;;;10.23;;
27977;SDS011;15314;49.248;6.968;2024-01-27T00:16:32;16.23;;;10.23;;
27977;SDS011;15314;49.248;6.968;2024-01-27T00:17:52;12.57;;;11.13;;
27977;SDS011;15314;49.248;6.968;2024-01-27T00:19:11;14.43;;;10.90;;
27977;SDS011;15314;49.248;6.968;2024-01-27T00:20:31;14.15;;;10.70;;
27977;SDS011;15314;49.248;6.968;2024-01-27T00:21:51;13.20;;;10.45;;
27977;SDS011;15314;49.248;6.968;2024-01-27T00:23:10;11.00;;;10.10;;
27977;SDS011;15314;49.248;6.968;2024-01-27T00:24:30;14.70;;;9.75;;
27977;SDS011;15314;49.248;6.968;2024-01-27T00:25:50;11.65;;;10.55;;
27977;SDS011;15314;49.248;6.968;2024-01-27T00:27:12;11.27;;;10.07;;
27977;SDS011;15314;49.248;6.968;2024-01-27T00:28:32;12.77;;;10.35;;
27977;SDS011;15314;49.248;6.968;2024-01-27T00:29:51;14.30;;;10.27;;
27977;SDS011;15314;49.248;6.968;2024-01-27T00:31:11;14.35;;;10.43;;
27977;SDS011;15314;49.248;6.968;2024-01-27T00:32:30;13.13;;;10.23;;
27977;SDS011;15314;49.248;6.968;2024-01-27T00:33:49;10.55;;;9.48;;
27977;SDS011;15314;49.248;6.968;2024-01-27T00:35:07;12.98;;;9.85;;
27977;SDS011;15314;49.248;6.968;2024-01-27T00:36:26;11.85;;;10.43;;
27977;SDS011;15314;49.248;6.968;2024-01-27T00:37:46;11.00;;;9.88;;
27977;SDS011;15314;49.248;6.968;2024-01-27T00:39:05;11.88;;;10.48;;
27977;SDS011;15314;49.248;6.968;2024-01-27T00:40:27;11.30;;;10.20;;
27977;SDS011;15314;49.248;6.968;2024-01-27T00:41:46;10.07;;;9.18;;
27977;SDS011;15314;49.248;6.968;2024-01-27T00:43:05;11.68;;;9.63;;
27977;SDS011;15314;49.248;6.968;2024-01-27T00:44:25;10.63;;;9.52;;
27977;SDS011;15314;49.248;6.968;2024-01-27T00:45:47;10.68;;;9.48;;
27977;SDS011;15314;49.248;6.968;2024-01-27T00:47:06;12.82;;;9.38;;
27977;SDS011;15314;49.248;6.968;2024-01-27T00:48:25;13.07;;;11.10;;
27977;SDS011;15314;49.248;6.968;2024-01-27T00:49:45;13.77;;;10.02;;
27977;SDS011;15314;49.248;6.968;2024-01-27T00:51:04;15.00;;;9.43;;
27977;SDS011;15314;49.248;6.968;2024-01-27T00:52:23;11.32;;;10.25;;
27977;SDS011;15314;49.248;6.968;2024-01-27T00:53:42;13.18;;;10.13;;
27977;SDS011;15314;49.248;6.968;2024-01-27T00:55:02;13.60;;;9.70;;
27977;SDS011;15314;49.248;6.968;2024-01-27T00:56:22;9.73;;;8.88;;
27977;SDS011;15314;49.248;6.968;2024-01-27T00:57:41;10.20;;;9.18;;
27977;SDS011;15314;49.248;6.968;2024-01-27T00:59:00;10.65;;;9.55;;
27977;SDS011;15314;49.248;6.968;2024-01-27T01:00:16;10.52;;;9.43;;
27977;SDS011;15314;49.248;6.968;2024-01-27T01:01:36;14.57;;;9.43;;
27977;SDS011;15314;49.248;6.968;2024-01-27T01:02:55;11.77;;;9.63;;
27977;SDS011;15314;49.248;6.968;2024-01-27T01:04:14;12.02;;;10.55;;
27977;SDS011;15314;49.248;6.968;2024-01-27T01:05:34;13.13;;;10.27;;
27977;SDS011;15314;49.248;6.968;2024-01-27T01:06:53;10.70;;;9.63;;
27977;SDS011;15314;49.248;6.968;2024-01-27T01:08:12;10.43;;;9.60;;
27977;SDS011;15314;49.248;6.968;2024-01-27T01:09:31;11.70;;;10.63;;
27977;SDS011;15314;49.248;6.968;2024-01-27T01:10:50;12.90;;;9.95;;
27977;SDS011;15314;49.248;6.968;2024-01-27T01:12:06;11.48;;;10.32;;
27977;SDS011;15314;49.248;6.968;2024-01-27T01:13:26;11.90;;;10.68;;
27977;SDS011;15314;49.248;6.968;2024-01-27T01:14:45;12.38;;;11.00;;
27977;SDS011;15314;49.248;6.968;2024-01-27T01:16:05;13.75;;;11.45;;
27977;SDS011;15314;49.248;6.968;2024-01-27T01:17:26;12.13;;;10.80;;
27977;SDS011;15314;49.248;6.968;2024-01-27T01:18:45;12.05;;;10.85;;
27977;SDS011;15314;49.248;6.968;2024-01-27T01:20:05;11.23;;;10.18;;
27977;SDS011;15314;49.248;6.968;2024-01-27T01:21:22;13.02;;;10.65;;
27977;SDS011;15314;49.248;6.968;2024-01-27T01:22:41;13.77;;;10.90;;
27977;SDS011;15314;49.248;6.968;2024-01-27T01:24:00;10.60;;;9.57;;
27977;SDS011;15314;49.248;6.968;2024-01-27T01:25:20;13.10;;;10.75;;
27977;SDS011;15314;49.248;6.968;2024-01-27T01:26:39;11.77;;;10.63;;
27977;SDS011;15314;49.248;6.968;2024-01-27T01:27:59;15.07;;;11.50;;
27977;SDS011;15314;49.248;6.968;2024-01-27T01:29:17;12.13;;;10.55;;
27977;SDS011;15314;49.248;6.968;2024-01-27T01:30:36;11.43;;;10.43;;
27977;SDS011;15314;49.248;6.968;2024-01-27T01:31:55;11.93;;;10.80;;
27977;SDS011;15314;49.248;6.968;2024-01-27T01:33:14;13.43;;;10.20;;
27977;SDS011;15314;49.248;6.968;2024-01-27T01:34:33;11.05;;;10.00;;
27977;SDS011;15314;49.248;6.968;2024-01-27T01:35:52;11.43;;;10.35;;
27977;SDS011;15314;49.248;6.968;2024-01-27T01:37:12;13.80;;;10.85;;
27977;SDS011;15314;49.248;6.968;2024-01-27T01:38:32;14.25;;;10.70;;
27977;SDS011;15314;49.248;6.968;2024-01-27T01:39:51;11.82;;;10.63;;
27977;SDS011;15314;49.248;6.968;2024-01-27T01:41:10;15.48;;;11.02;;
27977;SDS011;15314;49.248;6.968;2024-01-27T01:42:30;11.15;;;10.25;;
27977;SDS011;15314;49.248;6.968;2024-01-27T01:43:49;11.60;;;10.32;;
27977;SDS011;15314;49.248;6.968;2024-01-27T01:45:09;11.98;;;10.88;;
27977;SDS011;15314;49.248;6.968;2024-01-27T01:46:31;12.50;;;10.70;;
27977;SDS011;15314;49.248;6.968;2024-01-27T01:47:50;11.98;;;10.77;;
27977;SDS011;15314;49.248;6.968;2024-01-27T01:49:10;12.20;;;10.95;;
27977;SDS011;15314;49.248;6.968;2024-01-27T01:50:29;12.25;;;11.02;;
27977;SDS011;15314;49.248;6.968;2024-01-27T01:51:49;12.32;;;10.63;;
27977;SDS011;15314;49.248;6.968;2024-01-27T01:53:09;11.02;;;9.90;;
27977;SDS011;15314;49.248;6.968;2024-01-27T01:54:28;12.07;;;10.20;;
27977;SDS011;15314;49.248;6.968;2024-01-27T01:57:09;10.82;;;9.77;;
27977;SDS011;15314;49.248;6.968;2024-01-27T01:58:28;11.43;;;10.27;;
27977;SDS011;15314;49.248;6.968;2024-01-27T01:59:52;13.00;;;10.07;;
27977;SDS011;15314;49.248;6.968;2024-01-27T02:01:11;14.60;;;10.35;;
27977;SDS011;15314;49.248;6.968;2024-01-27T02:02:31;16.00;;;12.00;;
27977;SDS011;15314;49.248;6.968;2024-01-27T02:05:12;12.55;;;11.30;;
27977;SDS011;15314;49.248;6.968;2024-01-27T02:06:33;12.60;;;11.23;;
27977;SDS011;15314;49.248;6.968;2024-01-27T02:07:52;14.60;;;11.57;;
27977;SDS011;15314;49.248;6.968;2024-01-27T02:09:14;14.95;;;10.73;;
27977;SDS011;15314;49.248;6.968;2024-01-27T02:10:34;15.18;;;10.95;;
27977;SDS011;15314;49.248;6.968;2024-01-27T02:11:56;12.07;;;10.48;;
27977;SDS011;15314;49.248;6.968;2024-01-27T02:13:16;14.27;;;11.65;;
27977;SDS011;15314;49.248;6.968;2024-01-27T02:14:36;13.43;;;10.20;;
27977;SDS011;15314;49.248;6.968;2024-01-27T02:15:55;11.73;;;10.50;;
27977;SDS011;15314;49.248;6.968;2024-01-27T02:17:14;12.38;;;10.63;;
27977;SDS011;15314;49.248;6.968;2024-01-27T02:18:33;10.77;;;9.73;;
27977;SDS011;15314;49.248;6.968;2024-01-27T02:19:49;13.35;;;11.48;;
27977;SDS011;15314;49.248;6.968;2024-01-27T02:21:08;12.52;;;11.25;;
27977;SDS011;15314;49.248;6.968;2024-01-27T02:22:27;14.02;;;10.98;;
27977;SDS011;15314;49.248;6.968;2024-01-27T02:23:46;13.18;;;11.55;;
27977;SDS011;15314;49.248;6.968;2024-01-27T02:25:05;13.10;;;10.35;;
27977;SDS011;15314;49.248;6.968;2024-01-27T02:26:24;12.38;;;11.02;;
27977;SDS011;15314;49.248;6.968;2024-01-27T02:27:43;11.77;;;10.50;;
27977;SDS011;15314;49.248;6.968;2024-01-27T02:29:02;11.63;;;10.70;;
27977;SDS011;15314;49.248;6.968;2024-01-27T02:30:22;12.10;;;10.68;;
27977;SDS011;15314;49.248;6.968;2024-01-27T02:31:41;13.48;;;11.15;;
27977;SDS011;15314;49.248;6.968;2024-01-27T02:33:01;13.30;;;10.90;;
27977;SDS011;15314;49.248;6.968;2024-01-27T02:34:20;14.07;;;10.83;;
27977;SDS011;15314;49.248;6.968;2024-01-27T02:35:39;16.05;;;11.65;;
27977;SDS011;15314;49.248;6.968;2024-01-27T02:36:59;12.68;;;11.13;;
27977;SDS011;15314;49.248;6.968;2024-01-27T02:38:15;13.80;;;11.05;;
27977;SDS011;15314;49.248;6.968;2024-01-27T02:39:34;13.25;;;10.73;;
27977;SDS011;15314;49.248;6.968;2024-01-27T02:40:54;13.43;;;11.13;;
27977;SDS011;15314;49.248;6.968;2024-01-27T02:42:13;12.30;;;10.95;;
27977;SDS011;15314;49.248;6.968;2024-01-27T02:43:32;11.93;;;10.70;;
27977;SDS011;15314;49.248;6.968;2024-01-27T02:44:52;12.30;;;10.65;;
27977;SDS011;15314;49.248;6.968;2024-01-27T02:46:11;14.27;;;12.38;;
27977;SDS011;15314;49.248;6.968;2024-01-27T02:47:31;12.40;;;10.93;;
27977;SDS011;15314;49.248;6.968;2024-01-27T02:48:50;12.75;;;11.45;;
27977;SDS011;15314;49.248;6.968;2024-01-27T02:50:10;13.93;;;11.15;;
27977;SDS011;15314;49.248;6.968;2024-01-27T02:51:29;13.90;;;11.60;;
27977;SDS011;15314;49.248;6.968;2024-01-27T02:52:48;12.93;;;11.50;;
27977;SDS011;15314;49.248;6.968;2024-01-27T02:54:08;13.23;;;11.68;;
27977;SDS011;15314;49.248;6.968;2024-01-27T02:55:27;13.52;;;12.02;;
27977;SDS011;15314;49.248;6.968;2024-01-27T02:56:46;13.02;;;11.75;;
27977;SDS011;15314;49.248;6.968;2024-01-27T02:58:05;14.00;;;11.93;;
27977;SDS011;15314;49.248;6.968;2024-01-27T02:59:21;17.08;;;12.48;;
27977;SDS011;15314;49.248;6.968;2024-01-27T03:00:40;12.73;;;11.65;;
27977;SDS011;15314;49.248;6.968;2024-01-27T03:01:59;17.48;;;12.88;;
27977;SDS011;15314;49.248;6.968;2024-01-27T03:03:19;15.10;;;12.48;;
27977;SDS011;15314;49.248;6.968;2024-01-27T03:04:39;14.75;;;12.77;;
27977;SDS011;15314;49.248;6.968;2024-01-27T03:05:55;20.60;;;14.50;;
27977;SDS011;15314;49.248;6.968;2024-01-27T03:07:14;20.30;;;13.65;;
27977;SDS011;15314;49.248;6.968;2024-01-27T03:08:34;18.75;;;13.80;;
27977;SDS011;15314;49.248;6.968;2024-01-27T03:09:53;18.70;;;15.55;;
27977;SDS011;15314;49.248;6.968;2024-01-27T03:11:12;21.23;;;14.07;;
27977;SDS011;15314;49.248;6.968;2024-01-27T03:12:31;21.02;;;13.60;;
27977;SDS011;15314;49.248;6.968;2024-01-27T03:13:48;17.27;;;13.98;;
27977;SDS011;15314;49.248;6.968;2024-01-27T03:15:07;21.45;;;15.45;;
27977;SDS011;15314;49.248;6.968;2024-01-27T03:16:27;21.13;;;14.23;;
27977;SDS011;15314;49.248;6.968;2024-01-27T03:17:46;23.48;;;15.25;;
27977;SDS011;15314;49.248;6.968;2024-01-27T03:19:05;15.02;;;13.13;;
27977;SDS011;15314;49.248;6.968;2024-01-27T03:20:22;19.92;;;12.95;;
27977;SDS011;15314;49.248;6.968;2024-01-27T03:21:41;17.13;;;13.95;;
27977;SDS011;15314;49.248;6.968;2024-01-27T03:23:00;15.45;;;12.63;;
27977;SDS011;15314;49.248;6.968;2024-01-27T03:24:19;19.70;;;14.23;;
27977;SDS011;15314;49.248;6.968;2024-01-27T03:25:35;16.73;;;12.80;;
27977;SDS011;15314;49.248;6.968;2024-01-27T03:26:54;16.60;;;12.88;;
27977;SDS011;15314;49.248;6.968;2024-01-27T03:28:13;14.63;;;12.93;;
27977;SDS011;15314;49.248;6.968;2024-01-27T03:29:33;14.75;;;12.85;;
27977;SDS011;15314;49.248;6.968;2024-01-27T03:30:52;16.05;;;12.57;;
27977;SDS011;15314;49.248;6.968;2024-01-27T03:32:11;14.13;;;12.57;;
27977;SDS011;15314;49.248;6.968;2024-01-27T03:33:31;17.58;;;12.98;;
27977;SDS011;15314;49.248;6.968;2024-01-27T03:34:50;12.68;;;11.50;;
27977;SDS011;15314;49.248;6.968;2024-01-27T03:36:12;15.95;;;12.18;;
27977;SDS011;15314;49.248;6.968;2024-01-27T03:37:32;14.60;;;11.38;;
27977;SDS011;15314;49.248;6.968;2024-01-27T03:38:52;13.10;;;11.80;;
27977;SDS011;15314;49.248;6.968;2024-01-27T03:40:11;12.45;;;11.45;;
27977;SDS011;15314;49.248;6.968;2024-01-27T03:41:31;15.00;;;11.80;;
27977;SDS011;15314;49.248;6.968;2024-01-27T03:42:50;13.55;;;12.13;;
27977;SDS011;15314;49.248;6.968;2024-01-27T03:44:09;13.73;;;12.35;;
27977;SDS011;15314;49.248;6.968;2024-01-27T03:45:28;15.43;;;12.77;;
27977;SDS011;15314;49.248;6.968;2024-01-27T03:46:47;19.63;;;13.13;;
27977;SDS011;15314;49.248;6.968;2024-01-27T03:48:07;16.40;;;11.95;;
27977;SDS011;15314;49.248;6.968;2024-01-27T03:49:26;15.40;;;13.05;;
27977;SDS011;15314;49.248;6.968;2024-01-27T03:50:45;13.65;;;12.10;;
27977;SDS011;15314;49.248;6.968;2024-01-27T03:52:04;18.73;;;12.95;;
27977;SDS011;15314;49.248;6.968;2024-01-27T03:53:24;14.82;;;12.63;;
27977;SDS011;15314;49.248;6.968;2024-01-27T03:54:43;12.82;;;11.52;;
27977;SDS011;15314;49.248;6.968;2024-01-27T03:55:59;15.77;;;12.48;;
27977;SDS011;15314;49.248;6.968;2024-01-27T03:57:18;14.90;;;13.30;;
27977;SDS011;15314;49.248;6.968;2024-01-27T03:58:37;18.50;;;13.65;;
27977;SDS011;15314;49.248;6.968;2024-01-27T03:59:57;14.82;;;12.98;;
27977;SDS011;15314;49.248;6.968;2024-01-27T04:01:16;18.80;;;12.48;;
27977;SDS011;15314;49.248;6.968;2024-01-27T04:02:36;13.50;;;11.15;;
27977;SDS011;15314;49.248;6.968;2024-01-27T04:03:55;15.48;;;11.95;;
27977;SDS011;15314;49.248;6.968;2024-01-27T04:05:14;16.27;;;12.18;;
27977;SDS011;15314;49.248;6.968;2024-01-27T04:06:37;17.05;;;10.98;;
27977;SDS011;15314;49.248;6.968;2024-01-27T04:07:54;12.10;;;10.90;;
27977;SDS011;15314;49.248;6.968;2024-01-27T04:09:13;14.95;;;11.07;;
27977;SDS011;15314;49.248;6.968;2024-01-27T04:10:32;15.60;;;12.38;;
27977;SDS011;15314;49.248;6.968;2024-01-27T04:11:52;13.02;;;11.10;;
27977;SDS011;15314;49.248;6.968;2024-01-27T04:13:12;15.82;;;11.85;;
27977;SDS011;15314;49.248;6.968;2024-01-27T04:14:32;13.40;;;11.23;;
27977;SDS011;15314;49.248;6.968;2024-01-27T04:15:51;13.82;;;11.68;;
27977;SDS011;15314;49.248;6.968;2024-01-27T04:18:31;14.52;;;12.25;;
27977;SDS011;15314;49.248;6.968;2024-01-27T04:19:50;13.68;;;11.65;;
27977;SDS011;15314;49.248;6.968;2024-01-27T04:21:09;15.13;;;12.93;;
27977;SDS011;15314;49.248;6.968;2024-01-27T04:22:28;13.85;;;12.40;;
27977;SDS011;15314;49.248;6.968;2024-01-27T04:23:44;15.25;;;12.73;;
27977;SDS011;15314;49.248;6.968;2024-01-27T04:25:04;12.90;;;11.75;;
27977;SDS011;15314;49.248;6.968;2024-01-27T04:26:23;15.35;;;12.40;;
27977;SDS011;15314;49.248;6.968;2024-01-27T04:27:42;14.63;;;13.00;;
27977;SDS011;15314;49.248;6.968;2024-01-27T04:29:01;16.17;;;12.90;;
27977;SDS011;15314;49.248;6.968;2024-01-27T04:30:20;16.58;;;12.82;;
27977;SDS011;15314;49.248;6.968;2024-01-27T04:31:39;14.48;;;12.95;;
27977;SDS011;15314;49.248;6.968;2024-01-27T04:32:56;16.92;;;13.70;;
27977;SDS011;15314;49.248;6.968;2024-01-27T04:34:16;18.00;;;14.43;;
27977;SDS011;15314;49.248;6.968;2024-01-27T04:35:35;16.83;;;12.60;;
27977;SDS011;15314;49.248;6.968;2024-01-27T04:36:54;15.05;;;13.45;;
27977;SDS011;15314;49.248;6.968;2024-01-27T04:38:13;15.07;;;12.25;;
27977;SDS011;15314;49.248;6.968;2024-01-27T04:39:33;15.02;;;13.20;;
27977;SDS011;15314;49.248;6.968;2024-01-27T04:40:52;13.85;;;11.85;;
27977;SDS011;15314;49.248;6.968;2024-01-27T04:42:11;14.35;;;12.85;;
27977;SDS011;15314;49.248;6.968;2024-01-27T04:43:30;16.10;;;12.25;;
27977;SDS011;15314;49.248;6.968;2024-01-27T04:44:49;14.38;;;12.90;;
27977;SDS011;15314;49.248;6.968;2024-01-27T04:46:08;14.77;;;12.80;;
27977;SDS011;15314;49.248;6.968;2024-01-27T04:47:28;15.52;;;12.52;;
27977;SDS011;15314;49.248;6.968;2024-01-27T04:48:47;14.57;;;12.63;;
27977;SDS011;15314;49.248;6.968;2024-01-27T04:50:06;14.93;;;13.38;;
27977;SDS011;15314;49.248;6.968;2024-01-27T04:51:25;15.98;;;12.45;;
27977;SDS011;15314;49.248;6.968;2024-01-27T04:52:45;16.98;;;13.00;;
27977;SDS011;15314;49.248;6.968;2024-01-27T04:54:04;13.50;;;12.07;;
27977;SDS011;15314;49.248;6.968;2024-01-27T04:55:23;13.48;;;12.07;;
27977;SDS011;15314;49.248;6.968;2024-01-27T04:56:43;13.57;;;12.20;;
27977;SDS011;15314;49.248;6.968;2024-01-27T04:58:02;13.63;;;12.20;;
27977;SDS011;15314;49.248;6.968;2024-01-27T04:59:21;14.15;;;11.73;;
27977;SDS011;15314;49.248;6.968;2024-01-27T05:00:40;13.48;;;12.18;;
27977;SDS011;15314;49.248;6.968;2024-01-27T05:01:59;14.70;;;11.18;;
27977;SDS011;15314;49.248;6.968;2024-01-27T05:03:19;17.58;;;12.15;;
27977;SDS011;15314;49.248;6.968;2024-01-27T05:04:39;15.38;;;12.77;;
27977;SDS011;15314;49.248;6.968;2024-01-27T05:05:58;13.73;;;12.30;;
27977;SDS011;15314;49.248;6.968;2024-01-27T05:07:17;15.77;;;12.60;;
27977;SDS011;15314;49.248;6.968;2024-01-27T05:08:36;13.68;;;12.07;;
27977;SDS011;15314;49.248;6.968;2024-01-27T05:09:56;17.90;;;11.73;;
27977;SDS011;15314;49.248;6.968;2024-01-27T05:11:15;17.90;;;12.57;;
27977;SDS011;15314;49.248;6.968;2024-01-27T05:12:43;17.67;;;13.10;;
27977;SDS011;15314;49.248;6.968;2024-01-27T05:14:02;15.00;;;12.70;;
27977;SDS011;15314;49.248;6.968;2024-01-27T05:15:21;15.65;;;13.20;;
27977;SDS011;15314;49.248;6.968;2024-01-27T05:16:40;16.90;;;12.63;;
27977;SDS011;15314;49.248;6.968;2024-01-27T05:17:59;14.05;;;11.82;;
27977;SDS011;15314;49.248;6.968;2024-01-27T05:19:18;14.25;;;12.75;;
27977;SDS011;15314;49.248;6.968;2024-01-27T05:20:37;16.15;;;11.77;;
27977;SDS011;15314;49.248;6.968;2024-01-27T05:21:57;14.50;;;12.23;;
27977;SDS011;15314;49.248;6.968;2024-01-27T05:23:16;14.50;;;13.00;;
27977;SDS011;15314;49.248;6.968;2024-01-27T05:24:38;15.38;;;12.18;;
27977;SDS011;15314;49.248;6.968;2024-01-27T05:25:57;16.27;;;12.95;;
27977;SDS011;15314;49.248;6.968;2024-01-27T05:27:16;13.77;;;12.35;;
27977;SDS011;15314;49.248;6.968;2024-01-27T05:28:35;13.85;;;12.32;;
27977;SDS011;15314;49.248;6.968;2024-01-27T05:29:56;15.77;;;13.50;;
27977;SDS011;15314;49.248;6.968;2024-01-27T05:31:15;20.08;;;13.15;;
27977;SDS011;15314;49.248;6.968;2024-01-27T05:32:34;17.17;;;12.15;;
27977;SDS011;15314;49.248;6.968;2024-01-27T05:33:53;17.60;;;12.70;;
27977;SDS011;15314;49.248;6.968;2024-01-27T05:35:13;17.42;;;12.75;;
27977;SDS011;15314;49.248;6.968;2024-01-27T05:36:33;17.63;;;12.93;;
27977;SDS011;15314;49.248;6.968;2024-01-27T05:37:52;14.10;;;12.57;;
27977;SDS011;15314;49.248;6.968;2024-01-27T05:39:13;21.45;;;14.38;;
27977;SDS011;15314;49.248;6.968;2024-01-27T05:40:33;15.57;;;12.35;;
27977;SDS011;15314;49.248;6.968;2024-01-27T05:41:51;16.33;;;13.32;;
27977;SDS011;15314;49.248;6.968;2024-01-27T05:43:11;15.48;;;13.88;;
27977;SDS011;15314;49.248;6.968;2024-01-27T05:44:30;16.40;;;14.70;;
27977;SDS011;15314;49.248;6.968;2024-01-27T05:45:49;19.63;;;14.15;;
27977;SDS011;15314;49.248;6.968;2024-01-27T05:47:08;16.85;;;14.00;;
27977;SDS011;15314;49.248;6.968;2024-01-27T05:48:29;19.90;;;14.23;;
27977;SDS011;15314;49.248;6.968;2024-01-27T05:49:48;14.07;;;12.38;;
27977;SDS011;15314;49.248;6.968;2024-01-27T05:51:07;18.55;;;12.52;;
27977;SDS011;15314;49.248;6.968;2024-01-27T05:52:26;15.82;;;12.02;;
27977;SDS011;15314;49.248;6.968;2024-01-27T05:53:46;14.30;;;11.88;;
27977;SDS011;15314;49.248;6.968;2024-01-27T05:55:06;16.38;;;11.88;;
27977;SDS011;15314;49.248;6.968;2024-01-27T05:56:25;18.83;;;11.38;;
27977;SDS011;15314;49.248;6.968;2024-01-27T05:57:44;18.05;;;11.20;;
27977;SDS011;15314;49.248;6.968;2024-01-27T05:59:03;15.82;;;12.27;;
27977;SDS011;15314;49.248;6.968;2024-01-27T06:00:23;13.30;;;11.93;;
27977;SDS011;15314;49.248;6.968;2024-01-27T06:01:42;14.48;;;12.85;;
27977;SDS011;15314;49.248;6.968;2024-01-27T06:03:03;19.10;;;13.48;;
27977;SDS011;15314;49.248;6.968;2024-01-27T06:04:22;13.63;;;12.15;;
27977;SDS011;15314;49.248;6.968;2024-01-27T06:05:42;17.33;;;13.40;;
27977;SDS011;15314;49.248;6.968;2024-01-27T06:07:01;27.85;;;18.85;;
27977;SDS011;15314;49.248;6.968;2024-01-27T06:08:20;22.25;;;15.60;;
27977;SDS011;15314;49.248;6.968;2024-01-27T06:09:40;26.08;;;17.90;;
27977;SDS011;15314;49.248;6.968;2024-01-27T06:10:59;18.10;;;15.52;;
27977;SDS011;15314;49.248;6.968;2024-01-27T06:12:19;24.23;;;18.15;;
27977;SDS011;15314;49.248;6.968;2024-01-27T06:13:39;23.73;;;16.30;;
27977;SDS011;15314;49.248;6.968;2024-01-27T06:14:59;23.77;;;15.80;;
27977;SDS011;15314;49.248;6.968;2024-01-27T06:16:18;19.77;;;14.63;;
27977;SDS011;15314;49.248;6.968;2024-01-27T06:17:38;20.35;;;16.10;;
27977;SDS011;15314;49.248;6.968;2024-01-27T06:18:57;16.85;;;14.55;;
27977;SDS011;15314;49.248;6.968;2024-01-27T06:20:16;23.48;;;15.40;;
27977;SDS011;15314;49.248;6.968;2024-01-27T06:21:36;17.17;;;13.88;;
27977;SDS011;15314;49.248;6.968;2024-01-27T06:22:56;16.60;;;12.90;;
27977;SDS011;15314;49.248;6.968;2024-01-27T06:24:16;13.40;;;12.20;;
27977;SDS011;15314;49.248;6.968;2024-01-27T06:25:35;17.40;;;12.60;;
27977;SDS011;15314;49.248;6.968;2024-01-27T06:26:54;16.80;;;13.18;;
27977;SDS011;15314;49.248;6.968;2024-01-27T06:28:13;19.17;;;14.07;;
27977;SDS011;15314;49.248;6.968;2024-01-27T06:29:32;15.98;;;12.48;;
27977;SDS011;15314;49.248;6.968;2024-01-27T06:30:51;18.95;;;13.55;;
27977;SDS011;15314;49.248;6.968;2024-01-27T06:32:10;17.85;;;13.73;;
27977;SDS011;15314;49.248;6.968;2024-01-27T06:33:30;14.60;;;12.68;;
27977;SDS011;15314;49.248;6.968;2024-01-27T06:34:49;17.88;;;12.25;;
27977;SDS011;15314;49.248;6.968;2024-01-27T06:36:09;16.40;;;13.25;;
27977;SDS011;15314;49.248;6.968;2024-01-27T06:37:28;17.60;;;12.80;;
27977;SDS011;15314;49.248;6.968;2024-01-27T06:38:45;16.33;;;12.90;;
27977;SDS011;15314;49.248;6.968;2024-01-27T06:40:05;14.68;;;12.70;;
27977;SDS011;15314;49.248;6.968;2024-01-27T06:41:25;13.77;;;12.55;;
27977;SDS011;15314;49.248;6.968;2024-01-27T06:42:45;21.08;;;13.07;;
27977;SDS011;15314;49.248;6.968;2024-01-27T06:44:04;18.02;;;12.70;;
27977;SDS011;15314;49.248;6.968;2024-01-27T06:45:23;14.88;;;13.30;;
27977;SDS011;15314;49.248;6.968;2024-01-27T06:46:42;15.60;;;13.35;;
27977;SDS011;15314;49.248;6.968;2024-01-27T06:48:04;17.52;;;12.82;;
27977;SDS011;15314;49.248;6.968;2024-01-27T06:49:24;23.02;;;14.25;;
27977;SDS011;15314;49.248;6.968;2024-01-27T06:50:44;13.77;;;12.43;;
27977;SDS011;15314;49.248;6.968;2024-01-27T06:52:03;20.83;;;13.60;;
27977;SDS011;15314;49.248;6.968;2024-01-27T06:53:23;16.50;;;13.10;;
27977;SDS011;15314;49.248;6.968;2024-01-27T06:54:42;14.73;;;12.82;;
27977;SDS011;15314;49.248;6.968;2024-01-27T06:56:03;17.48;;;13.43;;
27977;SDS011;15314;49.248;6.968;2024-01-27T06:57:23;14.80;;;12.93;;
27977;SDS011;15314;49.248;6.968;2024-01-27T06:58:43;15.73;;;12.45;;
27977;SDS011;15314;49.248;6.968;2024-01-27T07:00:02;16.92;;;13.32;;
27977;SDS011;15314;49.248;6.968;2024-01-27T07:01:21;19.63;;;13.50;;
27977;SDS011;15314;49.248;6.968;2024-01-27T07:02:40;17.25;;;13.38;;
27977;SDS011;15314;49.248;6.968;2024-01-27T07:04:02;14.48;;;12.95;;
27977;SDS011;15314;49.248;6.968;2024-01-27T07:05:22;16.58;;;12.40;;
27977;SDS011;15314;49.248;6.968;2024-01-27T07:06:41;15.60;;;13.38;;
27977;SDS011;15314;49.248;6.968;2024-01-27T07:08:00;20.15;;;13.07;;
27977;SDS011;15314;49.248;6.968;2024-01-27T07:09:21;16.67;;;13.02;;
27977;SDS011;15314;49.248;6.968;2024-01-27T07:10:40;13.88;;;12.43;;
27977;SDS011;15314;49.248;6.968;2024-01-27T07:11:56;17.77;;;13.20;;
27977;SDS011;15314;49.248;6.968;2024-01-27T07:13:12;15.07;;;13.40;;
27977;SDS011;15314;49.248;6.968;2024-01-27T07:14:32;17.33;;;13.18;;
27977;SDS011;15314;49.248;6.968;2024-01-27T07:15:51;18.13;;;14.07;;
27977;SDS011;15314;49.248;6.968;2024-01-27T07:17:07;17.33;;;13.48;;
27977;SDS011;15314;49.248;6.968;2024-01-27T07:18:26;20.30;;;13.80;;
27977;SDS011;15314;49.248;6.968;2024-01-27T07:19:46;17.98;;;13.02;;
27977;SDS011;15314;49.248;6.968;2024-01-27T07:21:05;17.40;;;13.07;;
27977;SDS011;15314;49.248;6.968;2024-01-27T07:22:24;17.73;;;13.23;;
27977;SDS011;15314;49.248;6.968;2024-01-27T07:23:44;20.75;;;14.35;;
27977;SDS011;15314;49.248;6.968;2024-01-27T07:25:03;16.77;;;13.35;;
27977;SDS011;15314;49.248;6.968;2024-01-27T07:26:23;13.80;;;12.48;;
27977;SDS011;15314;49.248;6.968;2024-01-27T07:27:42;22.98;;;14.82;;
27977;SDS011;15314;49.248;6.968;2024-01-27T07:29:02;24.00;;;15.23;;
27977;SDS011;15314;49.248;6.968;2024-01-27T07:30:21;14.70;;;13.30;;
27977;SDS011;15314;49.248;6.968;2024-01-27T07:31:41;22.23;;;14.35;;
27977;SDS011;15314;49.248;6.968;2024-01-27T07:33:00;14.73;;;12.18;;
27977;SDS011;15314;49.248;6.968;2024-01-27T07:34:19;21.20;;;13.38;;
27977;SDS011;15314;49.248;6.968;2024-01-27T07:35:39;20.60;;;14.35;;
27977;SDS011;15314;49.248;6.968;2024-01-27T07:36:59;15.10;;;12.80;;
27977;SDS011;15314;49.248;6.968;2024-01-27T07:38:18;19.25;;;12.65;;
27977;SDS011;15314;49.248;6.968;2024-01-27T07:39:37;17.50;;;13.50;;
27977;SDS011;15314;49.248;6.968;2024-01-27T07:40:56;18.75;;;13.30;;
27977;SDS011;15314;49.248;6.968;2024-01-27T07:42:15;16.35;;;13.05;;
27977;SDS011;15314;49.248;6.968;2024-01-27T07:43:34;15.02;;;12.57;;
27977;SDS011;15314;49.248;6.968;2024-01-27T07:44:50;21.15;;;12.98;;
27977;SDS011;15314;49.248;6.968;2024-01-27T07:46:09;18.45;;;14.18;;
27977;SDS011;15314;49.248;6.968;2024-01-27T07:47:29;21.77;;;16.83;;
27977;SDS011;15314;49.248;6.968;2024-01-27T07:48:48;26.63;;;18.77;;